Time;durP1;ratioP1;P1;durP2;ratioP2;P2;SDS_P1;SDS_P2;PMS_P1;PMS_P2;Temp;Humidity;BMP_temperature;BMP_pressure;BME280_temperature;BME280_humidity;BME280_pressure;Samples;Min_cycle;Max_cycle;Signal;HPM_P1;HPM_P2
2022/07/01 00:00:20;;;;;;;10.20;9.40;;;;;;;;;;2088341;28;20115;-80
2022/07/01 00:01:40;;;;;;;9.77;9.00;;;;;;;;;;2091244;28;20100;-80
2022/07/01 00:02:59;;;;;;;9.88;8.93;;;;;;;;;;2091922;28;20040;-80
2022/07/01 00:04:18;;;;;;;9.98;9.18;;;;;;;;;;2090593;28;20029;-80
2022/07/01 00:05:37;;;;;;;11.18;9.38;;;;;;;;;;2089837;28;20032;-80
2022/07/01 00:06:56;;;;;;;9.73;9.02;;;;;;;;;;2090570;28;20033;-80
2022/07/01 00:08:15;;;;;;;10.00;9.23;;;;;;;;;;2087614;28;20037;-80
2022/07/01 00:09:34;;;;;;;9.73;9.13;;;;;;;;;;2090567;28;20021;-80
2022/07/01 00:10:53;;;;;;;10.18;9.38;;;;;;;;;;2090549;28;20594;-80
2022/07/01 00:12:12;;;;;;;10.23;9.43;;;;;;;;;;2088546;28;20033;-80
2022/07/01 00:13:32;;;;;;;9.35;8.68;;;;;;;;;;2091263;28;20013;-79
2022/07/01 00:14:51;;;;;;;10.45;9.68;;;;;;;;;;2090860;28;20487;-79
2022/07/01 00:16:10;;;;;;;9.85;9.05;;;;;;;;;;2090455;28;20040;-80
2022/07/01 00:17:28;;;;;;;9.82;9.18;;;;;;;;;;2091104;28;20033;-80
2022/07/01 00:18:47;;;;;;;10.43;9.60;;;;;;;;;;2091625;28;20044;-79
2022/07/01 00:20:10;;;;;;;10.90;9.88;;;;;;;;;;2090379;28;20033;-80
2022/07/01 00:21:29;;;;;;;10.57;9.77;;;;;;;;;;2090963;28;20037;-80
2022/07/01 00:22:48;;;;;;;10.45;9.60;;;;;;;;;;2087684;28;20519;-81
2022/07/01 00:24:07;;;;;;;10.65;9.93;;;;;;;;;;2091418;28;20037;-80
2022/07/01 00:25:26;;;;;;;10.18;9.25;;;;;;;;;;2087635;28;20136;-80
2022/07/01 00:26:45;;;;;;;10.68;9.88;;;;;;;;;;2090230;28;20028;-78
2022/07/01 00:28:04;;;;;;;10.38;9.57;;;;;;;;;;2090831;28;20029;-78
2022/07/01 00:29:23;;;;;;;10.43;9.63;;;;;;;;;;2090089;28;20437;-79
2022/07/01 00:30:42;;;;;;;10.23;9.32;;;;;;;;;;2088262;28;20050;-79
2022/07/01 00:32:01;;;;;;;10.38;9.57;;;;;;;;;;2090756;28;20964;-78
2022/07/01 00:33:21;;;;;;;10.15;9.48;;;;;;;;;;2091161;28;20029;-78
2022/07/01 00:34:39;;;;;;;10.48;9.57;;;;;;;;;;2091861;28;20032;-78
2022/07/01 00:35:59;;;;;;;10.90;9.90;;;;;;;;;;2090546;28;20024;-78
2022/07/01 00:37:18;;;;;;;10.27;9.50;;;;;;;;;;2090699;28;20049;-78
2022/07/01 00:38:36;;;;;;;10.38;9.68;;;;;;;;;;2089321;28;20033;-78
2022/07/01 00:39:55;;;;;;;10.10;9.27;;;;;;;;;;2091309;28;20111;-78
2022/07/01 00:41:16;;;;;;;10.30;9.25;;;;;;;;;;2088467;28;20037;-79
2022/07/01 00:42:38;;;;;;;11.40;10.38;;;;;;;;;;2090184;28;20029;-79
2022/07/01 00:43:57;;;;;;;10.20;9.40;;;;;;;;;;2090926;28;20478;-79
2022/07/01 00:45:16;;;;;;;10.15;9.25;;;;;;;;;;2086702;28;20028;-79
2022/07/01 00:46:35;;;;;;;10.15;9.35;;;;;;;;;;2090636;28;20032;-79
2022/07/01 00:47:54;;;;;;;10.90;9.93;;;;;;;;;;2091041;28;20023;-79
2022/07/01 00:49:13;;;;;;;10.32;9.55;;;;;;;;;;2090760;28;20109;-79
2022/07/01 00:50:33;;;;;;;9.73;8.85;;;;;;;;;;2090722;28;20025;-79
2022/07/01 00:51:52;;;;;;;9.95;9.23;;;;;;;;;;2091919;28;20397;-79
2022/07/01 00:53:14;;;;;;;11.18;10.18;;;;;;;;;;2090872;28;20068;-79
2022/07/01 00:54:34;;;;;;;10.98;10.07;;;;;;;;;;2087506;28;20036;-79
2022/07/01 00:55:53;;;;;;;10.52;9.60;;;;;;;;;;2088905;28;20052;-79
2022/07/01 00:57:12;;;;;;;10.40;9.55;;;;;;;;;;2092268;28;20398;-79
2022/07/01 00:58:31;;;;;;;9.77;9.07;;;;;;;;;;2090785;28;20398;-79
2022/07/01 00:59:51;;;;;;;9.63;8.82;;;;;;;;;;2091470;28;20112;-79
2022/07/01 01:01:09;;;;;;;10.57;9.77;;;;;;;;;;2092091;28;20036;-79
2022/07/01 01:02:28;;;;;;;10.75;9.85;;;;;;;;;;2091011;28;20050;-79
2022/07/01 01:03:48;;;;;;;11.43;10.45;;;;;;;;;;2089214;28;20025;-79
2022/07/01 01:05:07;;;;;;;10.30;9.43;;;;;;;;;;2089769;28;20481;-79
2022/07/01 01:06:27;;;;;;;10.60;9.70;;;;;;;;;;2091638;28;20021;-79
2022/07/01 01:07:47;;;;;;;10.55;9.75;;;;;;;;;;2090622;28;20028;-79
2022/07/01 01:09:06;;;;;;;10.07;9.48;;;;;;;;;;2089381;28;20067;-79
2022/07/01 01:10:25;;;;;;;10.60;9.68;;;;;;;;;;2089523;28;20033;-79
2022/07/01 01:11:45;;;;;;;10.85;9.90;;;;;;;;;;2091299;28;20115;-79
2022/07/01 01:13:04;;;;;;;10.75;9.80;;;;;;;;;;2090585;28;20060;-79
2022/07/01 01:14:23;;;;;;;10.50;9.70;;;;;;;;;;2090923;28;20032;-79
2022/07/01 01:15:43;;;;;;;10.40;9.68;;;;;;;;;;2088148;28;20071;-79
2022/07/01 01:17:02;;;;;;;10.00;9.20;;;;;;;;;;2089315;28;20036;-79
2022/07/01 01:18:21;;;;;;;10.77;9.85;;;;;;;;;;2089209;28;20620;-79
2022/07/01 01:19:40;;;;;;;10.48;9.68;;;;;;;;;;2090660;28;20029;-79
2022/07/01 01:20:59;;;;;;;10.30;9.48;;;;;;;;;;2091659;28;20028;-79
2022/07/01 01:22:18;;;;;;;10.30;9.40;;;;;;;;;;2090363;28;20044;-79
2022/07/01 01:23:37;;;;;;;11.32;10.43;;;;;;;;;;2089831;28;20111;-79
2022/07/01 01:24:57;;;;;;;11.02;10.13;;;;;;;;;;2092254;28;20033;-79
2022/07/01 01:26:17;;;;;;;10.48;9.52;;;;;;;;;;2086189;28;20029;-80
2022/07/01 01:27:37;;;;;;;11.55;10.75;;;;;;;;;;2087659;28;20052;-79
2022/07/01 01:28:57;;;;;;;12.45;10.75;;;;;;;;;;2090585;28;20029;-79
2022/07/01 01:30:16;;;;;;;11.70;10.57;;;;;;;;;;2089437;28;20025;-79
2022/07/01 01:31:35;;;;;;;11.30;10.38;;;;;;;;;;2086240;28;20139;-78
2022/07/01 01:32:54;;;;;;;11.65;10.63;;;;;;;;;;2088220;28;20068;-79
2022/07/01 01:34:13;;;;;;;11.88;10.73;;;;;;;;;;2091229;28;20047;-79
2022/07/01 01:35:32;;;;;;;10.98;9.95;;;;;;;;;;2089653;28;20808;-79
2022/07/01 01:36:51;;;;;;;11.98;10.80;;;;;;;;;;2090038;28;20390;-79
2022/07/01 01:38:10;;;;;;;11.43;10.40;;;;;;;;;;2091904;28;20032;-79
2022/07/01 01:39:29;;;;;;;12.48;11.38;;;;;;;;;;2088690;28;20025;-79
2022/07/01 01:40:49;;;;;;;11.88;10.98;;;;;;;;;;2086801;28;20044;-79
2022/07/01 01:42:08;;;;;;;10.77;9.95;;;;;;;;;;2084882;28;20032;-79
2022/07/01 01:43:27;;;;;;;12.07;11.00;;;;;;;;;;2091816;28;20040;-79
2022/07/01 01:44:47;;;;;;;10.07;9.38;;;;;;;;;;2087462;28;20029;-79
2022/07/01 01:46:05;;;;;;;11.80;10.13;;;;;;;;;;2092311;28;20033;-78
2022/07/01 01:47:24;;;;;;;10.10;9.32;;;;;;;;;;2090406;28;20033;-79
2022/07/01 01:48:43;;;;;;;11.07;10.18;;;;;;;;;;2085539;28;20060;-79
2022/07/01 01:50:04;;;;;;;12.15;11.02;;;;;;;;;;2090107;28;20028;-78
2022/07/01 01:51:23;;;;;;;11.25;10.10;;;;;;;;;;2090131;28;20037;-79
2022/07/01 01:52:43;;;;;;;10.80;10.10;;;;;;;;;;2090446;28;20390;-79
2022/07/01 01:54:02;;;;;;;10.45;9.60;;;;;;;;;;2089794;28;20495;-79
2022/07/01 01:55:21;;;;;;;10.68;9.85;;;;;;;;;;2088437;28;20033;-78
2022/07/01 01:56:40;;;;;;;11.10;10.13;;;;;;;;;;2090404;28;20029;-79
2022/07/01 01:57:58;;;;;;;10.18;9.38;;;;;;;;;;2090912;28;20029;-79
2022/07/01 01:59:17;;;;;;;9.98;9.07;;;;;;;;;;2090982;28;21283;-79
2022/07/01 02:00:37;;;;;;;10.38;9.68;;;;;;;;;;2090055;28;20017;-78
2022/07/01 02:01:56;;;;;;;9.77;9.07;;;;;;;;;;2090278;28;20025;-79
2022/07/01 02:03:15;;;;;;;9.63;8.88;;;;;;;;;;2089798;28;20045;-79
2022/07/01 02:04:34;;;;;;;10.57;9.75;;;;;;;;;;2090533;28;20029;-79
2022/07/01 02:05:53;;;;;;;11.30;10.45;;;;;;;;;;2087681;28;20025;-79
2022/07/01 02:07:12;;;;;;;9.93;9.13;;;;;;;;;;2091844;28;20037;-79
2022/07/01 02:08:31;;;;;;;10.00;9.23;;;;;;;;;;2090188;28;20310;-79
2022/07/01 02:09:50;;;;;;;9.90;9.10;;;;;;;;;;2090350;28;20416;-79
2022/07/01 02:11:09;;;;;;;9.70;8.93;;;;;;;;;;2088773;28;20037;-79
2022/07/01 02:12:28;;;;;;;9.27;8.57;;;;;;;;;;2090049;28;20432;-80
2022/07/01 02:13:47;;;;;;;9.82;8.88;;;;;;;;;;2090375;28;20124;-79
2022/07/01 02:15:08;;;;;;;9.05;8.45;;;;;;;;;;2087927;28;20053;-79
2022/07/01 02:16:27;;;;;;;9.98;9.10;;;;;;;;;;2091690;28;20021;-80
2022/07/01 02:17:46;;;;;;;10.50;9.70;;;;;;;;;;2087881;28;20037;-80
2022/07/01 02:19:04;;;;;;;9.77;9.07;;;;;;;;;;2089384;28;20052;-79
2022/07/01 02:20:23;;;;;;;9.88;9.13;;;;;;;;;;2094214;28;20509;-79
2022/07/01 02:21:43;;;;;;;10.90;10.10;;;;;;;;;;2089374;28;20147;-79
2022/07/01 02:23:02;;;;;;;10.85;9.95;;;;;;;;;;2089473;28;20108;-79
2022/07/01 02:24:21;;;;;;;9.70;9.00;;;;;;;;;;2090236;28;20791;-79
2022/07/01 02:25:40;;;;;;;10.75;9.85;;;;;;;;;;2087359;28;20021;-80
2022/07/01 02:26:59;;;;;;;10.45;9.50;;;;;;;;;;2089535;28;20482;-79
2022/07/01 02:28:18;;;;;;;11.00;10.10;;;;;;;;;;2087677;28;20037;-79
2022/07/01 02:29:37;;;;;;;10.63;9.93;;;;;;;;;;2090530;28;20041;-79
2022/07/01 02:30:56;;;;;;;10.93;9.90;;;;;;;;;;2087288;28;20128;-79
2022/07/01 02:32:15;;;;;;;9.93;9.13;;;;;;;;;;2089428;28;20490;-79
2022/07/01 02:33:34;;;;;;;9.43;8.73;;;;;;;;;;2088144;28;20041;-79
2022/07/01 02:34:53;;;;;;;10.07;9.25;;;;;;;;;;2088684;28;20033;-79
2022/07/01 02:36:12;;;;;;;9.73;8.82;;;;;;;;;;2089909;28;20044;-79
2022/07/01 02:37:31;;;;;;;9.18;8.57;;;;;;;;;;2090168;28;20025;-79
2022/07/01 02:38:50;;;;;;;10.57;9.68;;;;;;;;;;2090323;28;20033;-79
2022/07/01 02:40:09;;;;;;;10.77;9.77;;;;;;;;;;2090422;28;20541;-80
2022/07/01 02:41:28;;;;;;;10.63;9.80;;;;;;;;;;2091509;28;20485;-80
2022/07/01 02:42:47;;;;;;;11.80;10.73;;;;;;;;;;2091301;28;20067;-79
2022/07/01 02:44:06;;;;;;;12.25;11.07;;;;;;;;;;2091286;28;20037;-79
2022/07/01 02:45:25;;;;;;;12.13;11.13;;;;;;;;;;2087183;28;20037;-79
2022/07/01 02:46:44;;;;;;;12.50;11.50;;;;;;;;;;2091102;28;20029;-79
2022/07/01 02:48:03;;;;;;;11.02;10.05;;;;;;;;;;2090325;28;20028;-79
2022/07/01 02:49:22;;;;;;;12.88;11.57;;;;;;;;;;2090188;28;20060;-79
2022/07/01 02:50:40;;;;;;;13.75;12.45;;;;;;;;;;2091736;28;20032;-80
2022/07/01 02:51:59;;;;;;;14.60;13.20;;;;;;;;;;2090532;28;20418;-80
2022/07/01 02:53:18;;;;;;;15.20;13.90;;;;;;;;;;2086063;28;20075;-80
2022/07/01 02:54:37;;;;;;;14.25;12.98;;;;;;;;;;2091701;28;20384;-80
2022/07/01 02:55:56;;;;;;;14.93;12.00;;;;;;;;;;2090485;28;20028;-79
2022/07/01 02:57:15;;;;;;;14.13;12.88;;;;;;;;;;2087739;28;20021;-80
2022/07/01 02:58:34;;;;;;;14.48;13.13;;;;;;;;;;2090917;28;20501;-80
2022/07/01 02:59:53;;;;;;;14.40;13.00;;;;;;;;;;2091224;28;20025;-79
2022/07/01 03:01:12;;;;;;;14.73;13.45;;;;;;;;;;2089379;28;20025;-80
2022/07/01 03:02:32;;;;;;;13.15;11.98;;;;;;;;;;2091030;28;20080;-79
2022/07/01 03:03:52;;;;;;;14.23;12.77;;;;;;;;;;2088095;28;20032;-80
2022/07/01 03:05:11;;;;;;;14.82;13.05;;;;;;;;;;2087319;28;20049;-80
2022/07/01 03:06:29;;;;;;;13.95;12.55;;;;;;;;;;2095089;28;20028;-80
2022/07/01 03:07:48;;;;;;;13.82;12.52;;;;;;;;;;2094027;28;20112;-79
2022/07/01 03:09:07;;;;;;;14.07;12.57;;;;;;;;;;2088790;28;20037;-80
2022/07/01 03:10:26;;;;;;;13.80;12.68;;;;;;;;;;2091139;28;20033;-80
2022/07/01 03:11:45;;;;;;;13.93;12.63;;;;;;;;;;2092016;28;20478;-79
2022/07/01 03:13:04;;;;;;;13.98;12.55;;;;;;;;;;2092191;28;20033;-79
2022/07/01 03:14:23;;;;;;;14.57;13.10;;;;;;;;;;2091943;28;20033;-78
2022/07/01 03:15:42;;;;;;;17.75;13.85;;;;;;;;;;2091008;28;20081;-78
2022/07/01 03:17:01;;;;;;;18.73;13.95;;;;;;;;;;2091366;28;20033;-78
2022/07/01 03:18:20;;;;;;;17.27;14.02;;;;;;;;;;2092157;28;20490;-79
2022/07/01 03:19:39;;;;;;;15.55;13.82;;;;;;;;;;2089915;28;20028;-80
2022/07/01 03:20:58;;;;;;;16.02;14.02;;;;;;;;;;2091109;28;20049;-79
2022/07/01 03:22:18;;;;;;;21.27;15.45;;;;;;;;;;2092314;28;20033;-79
2022/07/01 03:23:36;;;;;;;16.15;14.57;;;;;;;;;;2091104;28;20494;-80
2022/07/01 03:24:55;;;;;;;14.85;12.88;;;;;;;;;;2091315;28;20081;-79
2022/07/01 03:26:15;;;;;;;13.68;12.25;;;;;;;;;;2090031;28;20029;-79
2022/07/01 03:27:33;;;;;;;14.00;12.68;;;;;;;;;;2090356;28;20021;-79
2022/07/01 03:28:53;;;;;;;15.13;13.63;;;;;;;;;;2090805;28;20076;-79
2022/07/01 03:30:13;;;;;;;14.80;12.25;;;;;;;;;;2089588;28;20098;-79
2022/07/01 03:31:32;;;;;;;15.80;14.02;;;;;;;;;;2091385;28;20060;-79
2022/07/01 03:32:51;;;;;;;14.15;12.95;;;;;;;;;;2091629;28;20029;-79
2022/07/01 03:34:10;;;;;;;13.55;12.35;;;;;;;;;;2086976;28;20036;-79
2022/07/01 03:35:35;;;;;;;15.15;13.55;;;;;;;;;;2091807;28;20095;-80
2022/07/01 03:36:54;;;;;;;16.45;14.88;;;;;;;;;;2093213;28;20036;-80
2022/07/01 03:38:13;;;;;;;14.68;13.38;;;;;;;;;;2091503;28;20029;-79
2022/07/01 03:39:32;;;;;;;15.88;14.32;;;;;;;;;;2089885;28;20032;-79
2022/07/01 03:40:51;;;;;;;15.57;13.98;;;;;;;;;;2089225;28;20037;-79
2022/07/01 03:42:09;;;;;;;15.20;13.88;;;;;;;;;;2088145;28;20437;-79
2022/07/01 03:43:28;;;;;;;16.20;13.98;;;;;;;;;;2091691;28;20037;-79
2022/07/01 03:44:47;;;;;;;16.00;13.70;;;;;;;;;;2087540;28;20497;-80
2022/07/01 03:46:05;;;;;;;15.63;14.00;;;;;;;;;;2091566;28;20406;-79
2022/07/01 03:47:24;;;;;;;18.70;14.90;;;;;;;;;;2093246;28;20382;-79
2022/07/01 03:48:43;;;;;;;15.93;13.55;;;;;;;;;;2090324;28;20032;-80
2022/07/01 03:50:02;;;;;;;14.38;13.07;;;;;;;;;;2091383;28;20146;-80
2022/07/01 03:51:21;;;;;;;17.40;13.55;;;;;;;;;;2091961;28;20029;-80
2022/07/01 03:52:41;;;;;;;15.38;12.90;;;;;;;;;;2086928;28;20017;-80
2022/07/01 03:55:38;;;;;;;14.45;12.82;;;;;;;;;;2092039;28;20025;-80
2022/07/01 03:56:58;;;;;;;14.90;13.38;;;;;;;;;;2092418;28;20100;-79
2022/07/01 03:58:17;;;;;;;16.23;12.43;;;;;;;;;;2088127;28;20414;-79
2022/07/01 03:59:37;;;;;;;16.48;13.20;;;;;;;;;;2089478;28;20286;-79
2022/07/01 04:00:57;;;;;;;13.75;12.40;;;;;;;;;;2089331;28;20025;-79
2022/07/01 04:02:15;;;;;;;13.50;12.30;;;;;;;;;;2091208;28;20029;-79
2022/07/01 04:03:34;;;;;;;15.00;13.18;;;;;;;;;;2089808;28;20029;-79
2022/07/01 04:04:55;;;;;;;18.77;12.32;;;;;;;;;;2090651;28;20490;-79
2022/07/01 04:06:14;;;;;;;14.45;12.93;;;;;;;;;;2089014;28;20037;-80
2022/07/01 04:07:34;;;;;;;14.85;12.70;;;;;;;;;;2088748;28;20033;-81
2022/07/01 04:08:53;;;;;;;14.60;13.20;;;;;;;;;;2088144;28;20029;-80
2022/07/01 04:10:12;;;;;;;14.85;13.45;;;;;;;;;;2089887;28;20037;-80
2022/07/01 04:11:31;;;;;;;14.45;12.93;;;;;;;;;;2089710;28;20033;-79
2022/07/01 04:12:50;;;;;;;15.80;13.27;;;;;;;;;;2090494;28;20025;-79
2022/07/01 04:14:09;;;;;;;14.20;12.30;;;;;;;;;;2089984;28;20037;-80
2022/07/01 04:15:28;;;;;;;15.55;13.93;;;;;;;;;;2087893;28;20033;-79
2022/07/01 04:16:47;;;;;;;15.80;13.35;;;;;;;;;;2090427;28;20025;-79
2022/07/01 04:18:06;;;;;;;15.90;12.68;;;;;;;;;;2090559;28;20076;-79
2022/07/01 04:19:26;;;;;;;13.30;11.52;;;;;;;;;;2096456;28;20024;-82
2022/07/01 04:22:32;;;;;;;13.65;12.27;;;;;;;;;;2090476;28;20496;-81
2022/07/01 04:22:33;;;;;;;13.88;12.55;;;;;;;;;;2090826;28;20032;-81
2022/07/01 04:23:52;;;;;;;12.90;11.70;;;;;;;;;;2090121;28;20025;-82
2022/07/01 04:25:12;;;;;;;13.45;12.10;;;;;;;;;;2089469;28;20514;-80
2022/07/01 04:26:31;;;;;;;12.27;11.00;;;;;;;;;;2091318;28;20506;-81
2022/07/01 04:27:50;;;;;;;15.02;11.32;;;;;;;;;;2089975;28;20024;-81
2022/07/01 04:29:09;;;;;;;13.02;11.30;;;;;;;;;;2088424;28;20029;-81
2022/07/01 04:30:28;;;;;;;12.30;10.98;;;;;;;;;;2082442;28;20425;-80
2022/07/01 04:31:48;;;;;;;11.13;10.23;;;;;;;;;;2080574;28;20485;-81
2022/07/01 04:33:07;;;;;;;12.45;10.75;;;;;;;;;;2082892;28;20119;-81
2022/07/01 04:34:26;;;;;;;10.77;9.90;;;;;;;;;;2087605;28;20119;-81
2022/07/01 04:35:44;;;;;;;11.13;9.80;;;;;;;;;;2082902;28;20029;-81
2022/07/01 04:37:04;;;;;;;13.40;10.43;;;;;;;;;;2081181;28;20024;-82
2022/07/01 04:38:23;;;;;;;11.60;9.60;;;;;;;;;;2082891;28;20450;-80
2022/07/01 04:39:42;;;;;;;10.25;9.07;;;;;;;;;;2083096;28;20041;-79
2022/07/01 04:42:38;;;;;;;13.52;8.63;;;;;;;;;;2081295;28;20095;-80
2022/07/01 04:43:57;;;;;;;10.50;9.35;;;;;;;;;;2081710;28;20029;-80
2022/07/01 04:45:17;;;;;;;11.60;8.65;;;;;;;;;;2083162;28;20079;-80
2022/07/01 04:46:35;;;;;;;9.32;8.27;;;;;;;;;;2077353;28;20425;-78
2022/07/01 04:47:54;;;;;;;8.80;7.90;;;;;;;;;;2083150;28;20028;-77
2022/07/01 04:49:14;;;;;;;8.63;7.78;;;;;;;;;;2082165;28;20061;-76
2022/07/01 04:50:32;;;;;;;10.68;7.82;;;;;;;;;;2080959;28;20025;-78
2022/07/01 04:51:52;;;;;;;7.90;7.18;;;;;;;;;;2080875;28;20029;-76
2022/07/01 04:53:12;;;;;;;11.50;7.28;;;;;;;;;;2082057;28;20025;-76
2022/07/01 04:54:31;;;;;;;10.02;7.38;;;;;;;;;;2085974;28;20040;-76
2022/07/01 04:55:50;;;;;;;9.20;7.13;;;;;;;;;;2072718;28;20044;-77
2022/07/01 04:57:09;;;;;;;8.30;6.53;;;;;;;;;;2076612;28;20123;-77
2022/07/01 04:58:27;;;;;;;8.05;7.10;;;;;;;;;;2081762;28;20037;-77
2022/07/01 04:59:46;;;;;;;7.50;6.68;;;;;;;;;;2077577;28;20077;-77
2022/07/01 05:01:05;;;;;;;8.38;6.10;;;;;;;;;;2077338;28;20127;-81
2022/07/01 05:02:24;;;;;;;10.85;6.75;;;;;;;;;;2081625;28;20032;-79
2022/07/01 05:03:43;;;;;;;8.00;6.32;;;;;;;;;;2086189;28;20584;-80
2022/07/01 05:05:02;;;;;;;6.63;5.90;;;;;;;;;;2079332;28;20064;-82
2022/07/01 05:06:21;;;;;;;11.75;5.68;;;;;;;;;;2077472;28;20441;-81
2022/07/01 05:07:40;;;;;;;9.73;6.15;;;;;;;;;;2080391;28;20033;-81
2022/07/01 05:08:59;;;;;;;8.57;5.78;;;;;;;;;;2084073;28;20025;-81
2022/07/01 05:10:18;;;;;;;9.43;5.18;;;;;;;;;;2086187;28;20029;-80
2022/07/01 05:11:38;;;;;;;9.23;5.00;;;;;;;;;;2092969;28;20032;-84
2022/07/01 05:12:58;;;;;;;9.05;5.13;;;;;;;;;;2090599;28;20513;-84
2022/07/01 05:14:17;;;;;;;8.68;5.50;;;;;;;;;;2091724;28;20041;-84
2022/07/01 05:15:35;;;;;;;9.15;5.60;;;;;;;;;;2089001;28;20025;-84
2022/07/01 05:16:55;;;;;;;8.57;5.32;;;;;;;;;;2089429;28;20112;-84
2022/07/01 05:23:07;;;;;;;5.35;4.60;;;;;;;;;;2091038;28;20028;-82
2022/07/01 05:24:31;;;;;;;9.32;5.18;;;;;;;;;;2087532;28;20037;-82
2022/07/01 05:25:50;;;;;;;9.02;4.78;;;;;;;;;;2089601;28;20474;-82
2022/07/01 05:27:09;;;;;;;6.57;5.45;;;;;;;;;;2092280;28;20489;-82
2022/07/01 05:28:28;;;;;;;8.05;5.50;;;;;;;;;;2089999;28;20573;-81
2022/07/01 05:29:47;;;;;;;5.63;4.93;;;;;;;;;;2088111;28;20036;-82
2022/07/01 05:31:06;;;;;;;8.93;4.82;;;;;;;;;;2089611;28;20025;-82
2022/07/01 05:32:25;;;;;;;7.05;4.93;;;;;;;;;;2089827;28;20457;-83
2022/07/01 05:33:44;;;;;;;6.13;5.15;;;;;;;;;;2089286;28;20486;-82
2022/07/01 05:35:03;;;;;;;8.40;5.78;;;;;;;;;;2089377;28;20452;-83
2022/07/01 05:36:21;;;;;;;6.10;4.72;;;;;;;;;;2087777;28;20044;-83
2022/07/01 05:37:41;;;;;;;7.65;5.28;;;;;;;;;;2088689;28;20115;-83
2022/07/01 05:38:59;;;;;;;5.80;5.20;;;;;;;;;;2089214;28;20036;-82
2022/07/01 05:40:18;;;;;;;9.13;5.60;;;;;;;;;;2086724;28;20115;-82
2022/07/01 05:41:37;;;;;;;9.55;5.07;;;;;;;;;;2087501;28;20391;-83
2022/07/01 05:42:56;;;;;;;7.95;5.43;;;;;;;;;;2089605;28;20037;-82
2022/07/01 05:44:15;;;;;;;6.18;5.57;;;;;;;;;;2089163;28;20028;-83
2022/07/01 05:45:34;;;;;;;7.65;5.15;;;;;;;;;;2087429;28;20162;-84
2022/07/01 05:46:53;;;;;;;6.60;5.00;;;;;;;;;;2086493;28;20053;-82
2022/07/01 05:48:11;;;;;;;7.38;5.15;;;;;;;;;;2087397;28;20059;-83
2022/07/01 05:49:30;;;;;;;9.68;5.47;;;;;;;;;;2087234;28;20025;-83
2022/07/01 05:50:50;;;;;;;11.52;5.72;;;;;;;;;;2088896;28;20029;-82
2022/07/01 05:52:09;;;;;;;7.65;5.20;;;;;;;;;;2089724;28;20037;-83
2022/07/01 05:53:28;;;;;;;9.27;5.38;;;;;;;;;;2086058;28;20021;-83
2022/07/01 05:54:47;;;;;;;8.30;4.85;;;;;;;;;;2087133;28;20446;-80
2022/07/01 05:56:06;;;;;;;7.13;5.38;;;;;;;;;;2086463;28;20402;-83
2022/07/01 05:57:25;;;;;;;9.88;5.25;;;;;;;;;;2088716;28;20507;-80
2022/07/01 05:58:44;;;;;;;7.15;5.20;;;;;;;;;;2088685;28;20037;-80
2022/07/01 06:00:03;;;;;;;7.47;5.45;;;;;;;;;;2090381;28;20041;-79
2022/07/01 06:01:22;;;;;;;8.05;5.78;;;;;;;;;;2089149;28;20558;-80
2022/07/01 06:02:41;;;;;;;9.82;5.68;;;;;;;;;;2089637;28;20036;-80
2022/07/01 06:04:01;;;;;;;8.63;5.50;;;;;;;;;;2089933;28;20518;-80
2022/07/01 06:05:20;;;;;;;8.20;5.60;;;;;;;;;;2090202;28;20470;-80
2022/07/01 06:06:39;;;;;;;5.80;5.22;;;;;;;;;;2089567;28;20420;-80
2022/07/01 06:07:58;;;;;;;7.53;5.30;;;;;;;;;;2090581;28;20036;-79
2022/07/01 06:09:17;;;;;;;9.18;5.45;;;;;;;;;;2091042;28;20032;-80
2022/07/01 06:10:36;;;;;;;10.20;6.30;;;;;;;;;;2090633;28;20063;-80
2022/07/01 06:11:55;;;;;;;8.65;6.18;;;;;;;;;;2091651;28;20501;-80
2022/07/01 06:13:14;;;;;;;10.75;6.43;;;;;;;;;;2091427;28;20033;-79
2022/07/01 06:14:33;;;;;;;8.75;6.20;;;;;;;;;;2090779;28;20025;-79
2022/07/01 06:15:52;;;;;;;9.23;6.15;;;;;;;;;;2091556;28;20115;-80
2022/07/01 06:17:13;;;;;;;10.43;7.03;;;;;;;;;;2089491;28;20037;-79
2022/07/01 06:18:32;;;;;;;10.02;5.85;;;;;;;;;;2089578;28;20196;-79
2022/07/01 06:19:52;;;;;;;11.77;6.40;;;;;;;;;;2091227;28;20041;-79
2022/07/01 06:21:12;;;;;;;11.90;6.78;;;;;;;;;;2089785;28;20397;-79
2022/07/01 06:22:31;;;;;;;9.65;6.63;;;;;;;;;;2089348;28;20036;-79
2022/07/01 06:23:50;;;;;;;14.18;7.18;;;;;;;;;;2090455;28;20040;-79
2022/07/01 06:25:09;;;;;;;11.73;7.40;;;;;;;;;;2087627;28;20042;-80
2022/07/01 06:26:28;;;;;;;7.68;6.50;;;;;;;;;;2087326;28;20033;-79
2022/07/01 06:27:47;;;;;;;9.43;6.53;;;;;;;;;;2085531;28;20518;-82
2022/07/01 06:29:06;;;;;;;7.78;6.43;;;;;;;;;;2090698;28;20056;-79
2022/07/01 06:30:25;;;;;;;10.45;6.88;;;;;;;;;;2093253;28;20488;-82
2022/07/01 06:31:44;;;;;;;14.95;6.90;;;;;;;;;;2092254;28;20490;-84
2022/07/01 06:33:03;;;;;;;11.10;6.63;;;;;;;;;;2092791;28;20048;-82
2022/07/01 06:34:22;;;;;;;10.63;6.55;;;;;;;;;;2093321;28;20049;-82
2022/07/01 06:35:41;;;;;;;14.48;6.85;;;;;;;;;;2093297;28;20111;-82
2022/07/01 06:37:01;;;;;;;10.38;6.75;;;;;;;;;;2090542;28;20032;-81
2022/07/01 06:38:20;;;;;;;9.77;6.18;;;;;;;;;;2085475;28;20037;-83
2022/07/01 06:39:40;;;;;;;10.35;6.53;;;;;;;;;;2089259;28;20021;-80
2022/07/01 06:42:36;;;;;;;7.65;5.80;;;;;;;;;;2091163;28;20040;-82
2022/07/01 06:43:55;;;;;;;11.65;6.78;;;;;;;;;;2091381;28;20032;-83
2022/07/01 06:45:14;;;;;;;8.35;6.60;;;;;;;;;;2090932;28;20115;-81
2022/07/01 06:46:33;;;;;;;11.27;6.80;;;;;;;;;;2091362;28;20037;-80
2022/07/01 06:47:52;;;;;;;13.07;7.35;;;;;;;;;;2089670;28;20029;-81
2022/07/01 06:49:11;;;;;;;8.43;6.60;;;;;;;;;;2092068;28;20071;-82
2022/07/01 06:50:30;;;;;;;10.10;6.68;;;;;;;;;;2089903;28;20025;-83
2022/07/01 06:51:49;;;;;;;7.85;6.45;;;;;;;;;;2090622;28;20028;-82
2022/07/01 06:53:08;;;;;;;11.20;6.90;;;;;;;;;;2092546;28;20104;-83
2022/07/01 06:54:28;;;;;;;14.30;6.97;;;;;;;;;;2092657;28;20048;-83
2022/07/01 06:55:47;;;;;;;9.07;6.53;;;;;;;;;;2089985;28;20494;-84
2022/07/01 06:57:06;;;;;;;11.15;6.93;;;;;;;;;;2091783;28;20103;-85
2022/07/01 06:58:25;;;;;;;7.47;6.07;;;;;;;;;;2090545;28;20037;-85
2022/07/01 06:59:44;;;;;;;6.97;5.97;;;;;;;;;;2093176;28;20155;-85
2022/07/01 07:01:03;;;;;;;10.07;6.38;;;;;;;;;;2091070;28;20029;-85
2022/07/01 07:02:22;;;;;;;9.55;5.82;;;;;;;;;;2091348;28;20115;-83
2022/07/01 07:03:41;;;;;;;8.35;6.35;;;;;;;;;;2091941;28;20021;-84
2022/07/01 07:05:00;;;;;;;9.30;5.93;;;;;;;;;;2091527;28;20028;-85
2022/07/01 07:06:19;;;;;;;9.00;6.45;;;;;;;;;;2094253;28;20029;-85
2022/07/01 07:07:38;;;;;;;8.50;5.28;;;;;;;;;;2090018;28;20075;-84
2022/07/01 07:08:56;;;;;;;8.82;5.50;;;;;;;;;;2091719;28;20021;-85
2022/07/01 07:10:15;;;;;;;9.15;5.30;;;;;;;;;;2092571;28;20032;-86
2022/07/01 07:11:34;;;;;;;6.35;5.25;;;;;;;;;;2091853;28;20025;-84
2022/07/01 07:12:54;;;;;;;12.38;5.07;;;;;;;;;;2091741;28;20514;-84
2022/07/01 07:14:13;;;;;;;8.52;5.93;;;;;;;;;;2091272;28;20487;-84
2022/07/01 07:15:32;;;;;;;9.32;5.30;;;;;;;;;;2091291;28;20021;-84
2022/07/01 07:16:53;;;;;;;5.63;4.82;;;;;;;;;;2092764;28;20425;-84
2022/07/01 07:18:12;;;;;;;8.20;4.55;;;;;;;;;;2089924;28;20041;-84
2022/07/01 07:19:31;;;;;;;5.53;4.25;;;;;;;;;;2091478;28;20040;-85
2022/07/01 07:20:50;;;;;;;9.63;5.05;;;;;;;;;;2091912;28;20029;-86
2022/07/01 07:22:09;;;;;;;6.07;4.38;;;;;;;;;;2091409;28;20497;-86
2022/07/01 07:23:27;;;;;;;8.38;4.35;;;;;;;;;;2090587;28;20029;-84
2022/07/01 07:24:46;;;;;;;6.15;4.10;;;;;;;;;;2091387;28;20036;-86
2022/07/01 07:26:05;;;;;;;6.53;4.20;;;;;;;;;;2091027;28;20036;-83
2022/07/01 07:27:24;;;;;;;7.38;4.85;;;;;;;;;;2092757;28;20029;-86
2022/07/01 07:28:43;;;;;;;6.32;4.65;;;;;;;;;;2090077;28;20495;-84
2022/07/01 07:30:03;;;;;;;8.15;5.30;;;;;;;;;;2091410;28;20025;-84
2022/07/01 07:31:22;;;;;;;8.70;5.78;;;;;;;;;;2088385;28;20113;-83
2022/07/01 07:32:40;;;;;;;7.43;5.30;;;;;;;;;;2092644;28;20025;-85
2022/07/01 07:33:59;;;;;;;13.48;5.97;;;;;;;;;;2092651;28;20025;-84
2022/07/01 07:35:18;;;;;;;7.18;5.85;;;;;;;;;;2092744;28;20024;-85
2022/07/01 07:36:37;;;;;;;6.97;6.30;;;;;;;;;;2092010;28;20032;-86
2022/07/01 07:37:57;;;;;;;10.60;5.90;;;;;;;;;;2090528;28;20025;-86
2022/07/01 07:39:16;;;;;;;11.85;6.32;;;;;;;;;;2089408;28;20032;-86
2022/07/01 07:40:34;;;;;;;6.75;5.82;;;;;;;;;;2091983;28;20398;-84
2022/07/01 07:41:53;;;;;;;9.27;6.90;;;;;;;;;;2091129;28;20115;-86
2022/07/01 07:43:12;;;;;;;10.57;6.65;;;;;;;;;;2091893;28;20041;-87
2022/07/01 07:44:31;;;;;;;10.80;6.50;;;;;;;;;;2091329;28;20033;-87
2022/07/01 07:45:50;;;;;;;9.82;7.22;;;;;;;;;;2090879;28;20067;-85
2022/07/01 07:47:09;;;;;;;11.80;6.78;;;;;;;;;;2089807;28;20040;-85
2022/07/01 07:48:28;;;;;;;10.70;6.72;;;;;;;;;;2091851;28;21495;-84
2022/07/01 07:49:48;;;;;;;10.93;7.68;;;;;;;;;;2092704;28;20060;-85
2022/07/01 07:51:07;;;;;;;10.48;7.68;;;;;;;;;;2091664;28;20021;-88
2022/07/01 07:52:26;;;;;;;12.82;8.25;;;;;;;;;;2093194;28;20414;-86
2022/07/01 07:53:44;;;;;;;11.40;8.02;;;;;;;;;;2091135;28;20401;-86
2022/07/01 07:55:04;;;;;;;13.55;7.88;;;;;;;;;;2090469;28;20434;-85
2022/07/01 07:56:23;;;;;;;13.18;8.27;;;;;;;;;;2090438;28;20037;-85
2022/07/01 07:57:42;;;;;;;17.20;8.40;;;;;;;;;;2091867;28;20028;-83